Airport View

Enter AWOS ICAO identifier for current METAR.

ex. KFNL

KHIF 051358Z COR AUTO 10013KT 10SM SCT150 20/03 A3003 RMK AO2A SLP103 MIDFLD

5 Aug 2020 14:11

Other Area AWOS: KOGD - KSLC - KBMC - KU42

TAF KHIF 051300Z 0513/0619 11012G18KT 9999 SCT150 QNH3001INS BECMG 0517/0518 22009KT 9999 SCT150 QNH3000INS BECMG 0602/0603 11010G20KT 9999 BKN150 QNH2990INS TX36/0521Z TN19/0513Z